createdAt,value
2019-02-04T00:01:22.752Z,102208.47
2019-02-04T00:04:14.045Z,102207.99
2019-02-04T00:10:21.323Z,102221.73
2019-02-04T00:13:13.843Z,102222.28
2019-02-04T00:16:40.704Z,102217.35
2019-02-04T00:23:09.339Z,102219.24
2019-02-04T00:31:34.013Z,102231.95
2019-02-04T00:34:05.347Z,102232.20
2019-02-04T00:39:45.430Z,102247.37
2019-02-04T00:45:41.286Z,102245.48
2019-02-04T00:48:11.980Z,102246.69
2019-02-04T00:50:45.306Z,102248.41
2019-02-04T00:53:38.276Z,102246.02
2019-02-04T00:56:23.870Z,102244.63
2019-02-04T00:59:02.857Z,102244.70
2019-02-04T01:01:42.200Z,102249.72
2019-02-04T01:04:12.423Z,102249.45
2019-02-04T01:06:42.436Z,102241.48
2019-02-04T01:09:18.083Z,102243.66
2019-02-04T01:11:55.011Z,102238.84
2019-02-04T01:14:24.256Z,102240.83
2019-02-04T01:17:03.494Z,102245.55
2019-02-04T01:19:47.841Z,102259.26
2019-02-04T01:22:19.957Z,102261.73
2019-02-04T01:25:01.955Z,102260.50
2019-02-04T01:27:38.756Z,102260.50
2019-02-04T01:30:20.591Z,102277.27
2019-02-04T01:32:51.612Z,102268.88
2019-02-04T01:35:30.709Z,102262.78
2019-02-04T01:38:09.488Z,102262.76
2019-02-04T01:40:45.090Z,102270.91
2019-02-04T01:43:16.393Z,102268.77
2019-02-04T01:45:56.043Z,102275.58
2019-02-04T01:48:39.740Z,102278.55
2019-02-04T01:51:32.480Z,102279.27
2019-02-04T01:54:04.001Z,102272.69
2019-02-04T01:56:44.791Z,102284.79
2019-02-04T01:59:20.054Z,102285.84
2019-02-04T02:01:51.507Z,102284.64
2019-02-04T02:04:24.474Z,102283.63
2019-02-04T02:06:54.935Z,102284.03
2019-02-04T02:09:29.018Z,102281.86
2019-02-04T02:11:58.100Z,102282.80
2019-02-04T02:14:28.030Z,102278.44
2019-02-04T02:17:05.406Z,102270.63
2019-02-04T02:19:40.990Z,102272.24
2019-02-04T02:22:11.192Z,102276.79
2019-02-04T02:24:41.690Z,102271.71
2019-02-04T02:27:11.442Z,102271.60
2019-02-04T02:29:40.452Z,102271.60
2019-02-04T02:32:15.464Z,102264.61
2019-02-04T02:34:49.534Z,102267.55
2019-02-04T02:37:25.856Z,102261.95
2019-02-04T02:39:56.544Z,102261.34
2019-02-04T02:42:28.776Z,102246.69
2019-02-04T02:44:59.066Z,102254.80
2019-02-04T02:47:38.094Z,102257.28
2019-02-04T02:50:01.985Z,102260.25
2019-02-04T02:52:32.510Z,102268.06
2019-02-04T03:01:53.383Z,102264.88
2019-02-04T03:13:45.188Z,102287.08
2019-02-04T03:20:09.563Z,102288.77
2019-02-04T03:22:53.586Z,102286.12
2019-02-04T03:25:43.985Z,102281.06
2019-02-04T03:28:40.624Z,102277.31
2019-02-04T03:34:30.103Z,102278.63
2019-02-04T03:40:16.581Z,102276.09
2019-02-04T03:49:10.622Z,102282.97
2019-02-04T03:55:19.389Z,102277.97
2019-02-04T03:57:58.784Z,102278.83
2019-02-04T04:04:04.066Z,102281.10
2019-02-04T04:15:17.436Z,102295.94
2019-02-04T04:17:57.729Z,102295.48
2019-02-04T04:20:57.569Z,102291.02
2019-02-04T04:44:05.953Z,102278.25
2019-02-04T04:50:02.496Z,102274.13
2019-02-04T04:53:12.321Z,102273.17
2019-02-04T04:56:11.980Z,102274.16
2019-02-04T04:59:03.053Z,102271.60
2019-02-04T05:01:20.652Z,102270.77
2019-02-04T05:04:00.134Z,102270.77
2019-02-04T05:10:14.232Z,102260.97
2019-02-04T05:27:10.156Z,102268.00
2019-02-04T05:29:39.045Z,102280.16
2019-02-04T05:40:51.776Z,102299.10
2019-02-04T05:52:04.103Z,102305.98
2019-02-04T05:57:52.225Z,102306.84
2019-02-04T06:00:48.528Z,102307.00
2019-02-04T06:03:59.298Z,102304.55
2019-02-04T06:06:27.999Z,102298.88
2019-02-04T06:09:27.376Z,102299.00
2019-02-04T06:15:20.008Z,102302.94
2019-02-04T06:20:48.623Z,102296.59
2019-02-04T06:23:57.260Z,102295.23
2019-02-04T06:30:09.801Z,102294.86
2019-02-04T06:32:47.271Z,102291.73
2019-02-04T06:38:36.475Z,102295.95
2019-02-04T06:47:01.788Z,102284.45
2019-02-04T06:49:49.506Z,102281.97
2019-02-04T06:52:28.937Z,102276.56
2019-02-04T06:55:36.533Z,102238.02
2019-02-04T06:58:26.326Z,102278.67
2019-02-04T07:01:20.936Z,102280.36
2019-02-04T07:03:52.080Z,102278.89
2019-02-04T07:06:43.490Z,102268.64
2019-02-04T07:11:56.982Z,102270.43
2019-02-04T07:14:52.166Z,102287.46
2019-02-04T07:20:32.432Z,102285.80
2019-02-04T10:09:40.104Z,102216.33
2019-02-04T10:12:25.543Z,102219.29
2019-02-04T10:15:14.798Z,102210.77
2019-02-04T10:18:11.356Z,102214.81
2019-02-04T10:20:50.567Z,102218.94
2019-02-04T10:26:54.987Z,102212.36
2019-02-04T10:30:29.463Z,102218.42
2019-02-04T10:35:16.767Z,102213.66
2019-02-04T10:37:43.649Z,102215.61
2019-02-04T10:40:23.857Z,102211.20
2019-02-04T10:42:55.421Z,102192.30
2019-02-04T10:45:24.920Z,102192.30
2019-02-04T10:47:59.155Z,102200.50
2019-02-04T10:50:27.686Z,102201.25
2019-02-04T10:52:59.138Z,102187.72
2019-02-04T10:55:29.139Z,102189.36
2019-02-04T10:57:57.846Z,102183.45
2019-02-04T11:00:34.051Z,102180.59
2019-02-04T11:03:03.123Z,102173.78
2019-02-04T11:05:35.199Z,102169.66
2019-02-04T11:08:04.449Z,102168.83
2019-02-04T11:10:35.718Z,102168.83
2019-02-04T11:13:16.597Z,102167.79
2019-02-04T11:15:48.674Z,102161.18
2019-02-04T11:18:17.381Z,102142.34
2019-02-04T11:20:57.645Z,102159.91
2019-02-04T11:23:23.513Z,102158.99
2019-02-04T11:25:58.833Z,102157.89
2019-02-04T11:28:38.614Z,102148.14
2019-02-04T11:31:14.480Z,102149.83
2019-02-04T11:33:46.883Z,102156.84
2019-02-04T11:36:17.630Z,102147.09
2019-02-04T11:38:49.357Z,102151.50
2019-02-04T11:41:18.170Z,102149.72
2019-02-04T11:43:53.214Z,102146.91
2019-02-04T11:46:22.076Z,102150.69
2019-02-04T11:48:56.817Z,102143.75
2019-02-04T11:51:31.803Z,102146.92
2019-02-04T11:54:34.673Z,102133.47
2019-02-04T11:57:04.331Z,102137.67
2019-02-04T11:59:35.267Z,102134.31
2019-02-04T12:02:09.550Z,102146.58
2019-02-04T12:04:53.802Z,102133.05
2019-02-04T12:07:34.547Z,102135.12
2019-02-04T12:10:05.721Z,102134.92
2019-02-04T12:12:37.281Z,102134.92
2019-02-04T12:15:14.272Z,102111.73
2019-02-04T12:17:44.657Z,102128.69
2019-02-04T12:20:14.363Z,102129.96
2019-02-04T12:22:43.784Z,102117.20
2019-02-04T12:25:41.954Z,102110.84
2019-02-04T12:28:13.803Z,102088.81
2019-02-04T12:30:43.929Z,102109.38
2019-02-04T12:33:37.557Z,102109.81
2019-02-04T12:36:09.802Z,102116.03
2019-02-04T12:38:44.055Z,102110.64
2019-02-04T12:41:20.261Z,102106.42
2019-02-04T12:43:48.850Z,102110.77
2019-02-04T12:46:20.420Z,102110.51
2019-02-04T12:48:55.553Z,102110.51
2019-02-04T12:51:40.729Z,102112.08
2019-02-04T12:54:10.020Z,102115.32
2019-02-04T12:56:46.805Z,102108.24
2019-02-04T12:59:20.317Z,102100.68
2019-02-04T13:01:50.950Z,102101.34
2019-02-04T13:04:20.641Z,102097.97
2019-02-04T13:07:17.293Z,102093.88
2019-02-04T13:09:49.769Z,102085.66
2019-02-04T13:12:20.699Z,102087.65
2019-02-04T13:14:49.620Z,102091.89
2019-02-04T13:17:23.527Z,102083.81
2019-02-04T13:19:56.675Z,102086.94
2019-02-04T13:22:28.792Z,102080.11
2019-02-04T13:25:00.659Z,102084.52
2019-02-04T13:27:31.461Z,102040.14
2019-02-04T13:30:08.765Z,102073.05
2019-02-04T13:32:39.148Z,102068.58
2019-02-04T13:35:15.999Z,102068.58
2019-02-04T13:37:50.262Z,102073.34
2019-02-04T13:40:25.193Z,102065.73
2019-02-04T13:42:55.156Z,102066.20
2019-02-04T13:48:43.773Z,102072.38
2019-02-04T13:51:13.067Z,102057.20
2019-02-04T13:53:42.188Z,102067.37
2019-02-04T13:56:16.044Z,102065.91
2019-02-04T13:58:47.154Z,102071.94
2019-02-04T14:01:31.465Z,101764.98
2019-02-04T14:04:15.239Z,102064.75
2019-02-04T14:06:46.766Z,102062.30
2019-02-04T14:09:21.380Z,102062.00
2019-02-04T14:11:57.356Z,102066.02
2019-02-04T14:14:27.858Z,102050.61
2019-02-04T14:17:01.474Z,102055.09
2019-02-04T14:19:31.730Z,102061.61
2019-02-04T14:22:09.346Z,102060.83
2019-02-04T14:24:51.921Z,102049.20
2019-02-04T14:27:27.538Z,102051.03
2019-02-04T14:30:00.203Z,102052.20
2019-02-04T14:32:34.482Z,102041.73
2019-02-04T14:35:03.561Z,102045.70
2019-02-04T14:37:36.508Z,102043.17
2019-02-04T14:40:18.136Z,102032.55
2019-02-04T14:42:40.649Z,102041.30
2019-02-04T14:45:31.624Z,102032.92
2019-02-04T14:48:18.170Z,102038.67
2019-02-04T14:51:06.350Z,102035.20
2019-02-04T14:54:24.422Z,102034.03
2019-02-04T14:57:25.117Z,102034.00
2019-02-04T15:00:00.329Z,102037.16
2019-02-04T15:02:52.380Z,102037.84
2019-02-04T15:05:27.328Z,102043.23
2019-02-04T15:08:20.518Z,102035.39
2019-02-04T15:11:23.427Z,102047.66
2019-02-04T15:14:46.210Z,102039.85
2019-02-04T15:17:27.226Z,102040.02
2019-02-04T15:20:18.016Z,102032.64
2019-02-04T15:23:19.836Z,102035.92
2019-02-04T15:27:45.529Z,102042.18
2019-02-04T15:33:31.527Z,102037.64
2019-02-04T15:37:06.410Z,102031.09
2019-02-04T15:42:44.679Z,102032.94
2019-02-04T15:55:11.949Z,102040.25
2019-02-04T15:58:05.133Z,102039.68
2019-02-04T16:00:53.110Z,102023.30
2019-02-04T16:03:22.279Z,102008.27
2019-02-04T16:05:55.646Z,102001.92
2019-02-04T16:08:46.679Z,102000.59
2019-02-04T16:11:21.690Z,102003.63
2019-02-04T16:17:30.967Z,102004.08
2019-02-04T16:20:41.292Z,101996.56
2019-02-04T16:26:31.880Z,102005.70
2019-02-04T16:44:33.574Z,102007.53
2019-02-04T16:47:27.695Z,102021.98
2019-02-04T16:53:30.162Z,102011.88
2019-02-04T16:59:36.249Z,102011.27
2019-02-04T17:13:06.360Z,101995.36
2019-02-04T17:14:00.875Z,101997.48
2019-02-04T17:17:06.469Z,101998.80
2019-02-04T17:22:22.496Z,102001.36
2019-02-04T17:24:56.011Z,102009.39
2019-02-04T17:27:25.177Z,102001.92
2019-02-04T17:29:58.203Z,102002.44
2019-02-04T17:33:08.906Z,102001.21
2019-02-04T17:35:28.763Z,102009.08
2019-02-04T17:50:13.872Z,101991.09
2019-02-04T17:53:04.424Z,101983.89
2019-02-04T17:59:04.785Z,101963.02
2019-02-04T18:02:12.092Z,101979.83
2019-02-04T18:11:00.773Z,101985.05
2019-02-04T18:14:18.782Z,101981.38
2019-02-04T18:26:07.448Z,101974.38
2019-02-04T18:31:45.245Z,101992.34
2019-02-04T18:34:39.789Z,101984.22
2019-02-04T18:40:09.619Z,101988.39
2019-02-04T18:48:33.941Z,101983.11
2019-02-04T18:57:19.290Z,101973.52
2019-02-04T18:59:58.471Z,101957.81
2019-02-04T19:05:35.080Z,101970.72
2019-02-04T19:08:05.106Z,101965.84
2019-02-04T19:14:00.794Z,101971.20
2019-02-04T19:16:59.050Z,101974.39
2019-02-04T19:19:35.708Z,101977.69
2019-02-04T19:28:34.886Z,101976.77
2019-02-04T19:34:00.634Z,101988.08
2019-02-04T19:36:51.668Z,101975.77
2019-02-04T19:45:43.000Z,101983.93
2019-02-04T20:12:52.937Z,101976.47
2019-02-04T20:15:40.747Z,101975.36
2019-02-04T20:26:35.064Z,101985.36
2019-02-04T20:29:22.079Z,102003.08
2019-02-04T20:35:11.358Z,102007.04
2019-02-04T20:37:40.996Z,102000.59
2019-02-04T20:40:11.330Z,102013.05
2019-02-04T20:42:42.842Z,102006.73
2019-02-04T20:45:32.939Z,102007.38
2019-02-04T20:48:12.642Z,102024.70
2019-02-04T20:51:03.251Z,102031.94
2019-02-04T20:53:46.880Z,102033.81
2019-02-04T20:56:22.307Z,102025.47
2019-02-04T20:59:05.126Z,102028.21
2019-02-04T21:01:42.668Z,102029.23
2019-02-04T21:04:13.477Z,102024.70
2019-02-04T21:06:56.563Z,102029.43
2019-02-04T21:09:30.811Z,102029.43
2019-02-04T21:12:04.234Z,102021.67
2019-02-04T21:21:37.954Z,102033.52
2019-02-04T21:24:11.855Z,102039.95
2019-02-04T21:32:09.240Z,102046.25
2019-02-04T21:34:40.617Z,102042.36
2019-02-04T21:37:11.849Z,102054.03
2019-02-04T21:39:54.521Z,102051.80
2019-02-04T21:42:50.618Z,102054.05
2019-02-04T21:45:30.298Z,102063.00
2019-02-04T21:48:03.491Z,102060.09
2019-02-04T21:50:45.484Z,102054.41
2019-02-04T21:53:21.633Z,102057.43
2019-02-04T21:56:06.792Z,102056.79
2019-02-04T21:59:15.062Z,102058.11
2019-02-04T22:01:33.271Z,102057.20
2019-02-04T22:04:05.960Z,102057.16
2019-02-04T22:06:58.909Z,102058.80
2019-02-04T22:09:33.816Z,102053.83
2019-02-04T22:12:16.566Z,102057.70
2019-02-04T22:14:54.631Z,102054.58
2019-02-04T22:17:26.891Z,102044.17
2019-02-04T22:20:06.637Z,102062.78
2019-02-04T22:22:55.069Z,102056.02
2019-02-04T22:25:32.462Z,102059.67
2019-02-04T22:28:13.120Z,102055.68
2019-02-04T22:30:47.966Z,102056.27
2019-02-04T22:33:23.417Z,102060.88
2019-02-04T22:35:52.326Z,102059.31
2019-02-04T22:38:24.719Z,102055.62
2019-02-04T22:40:54.496Z,102065.56
2019-02-04T22:43:27.085Z,102067.25
2019-02-04T22:45:57.992Z,102070.03
2019-02-04T22:48:36.404Z,102071.84
2019-02-04T22:51:08.752Z,102078.03
2019-02-04T22:53:38.793Z,102070.38
2019-02-04T22:56:13.060Z,102070.38
2019-02-04T22:58:47.079Z,102070.63
2019-02-04T23:01:23.736Z,102071.80
2019-02-04T23:06:36.132Z,102078.55
2019-02-04T23:09:38.149Z,102072.57
2019-02-04T23:12:25.679Z,102074.36
2019-02-04T23:15:29.550Z,102070.36
2019-02-04T23:24:40.115Z,102051.78
2019-02-04T23:27:19.626Z,102060.73
2019-02-04T23:45:21.805Z,102084.52
2019-02-04T23:51:21.609Z,102081.43
2019-02-04T23:54:03.369Z,102096.97
2019-02-04T23:56:42.693Z,102099.48
2019-02-04T23:59:54.253Z,102100.03
